sensor_id;sensor_type;location;lat;lon;timestamp;P1;durP1;ratioP1;P2;durP2;ratioP2
10166;SDS011;62970;53.130;8.244;2022-12-13T00:01:59;36.53;;;21.87;;
10166;SDS011;62970;53.130;8.244;2022-12-13T00:04:31;39.70;;;22.30;;
10166;SDS011;62970;53.130;8.244;2022-12-13T00:07:00;32.70;;;20.30;;
10166;SDS011;62970;53.130;8.244;2022-12-13T00:09:30;31.83;;;19.13;;
10166;SDS011;62970;53.130;8.244;2022-12-13T00:12:00;33.10;;;19.90;;
10166;SDS011;62970;53.130;8.244;2022-12-13T00:14:29;31.03;;;19.57;;
10166;SDS011;62970;53.130;8.244;2022-12-13T00:16:59;32.80;;;19.30;;
10166;SDS011;62970;53.130;8.244;2022-12-13T00:19:33;33.43;;;19.90;;
10166;SDS011;62970;53.130;8.244;2022-12-13T00:22:02;31.80;;;19.60;;
10166;SDS011;62970;53.130;8.244;2022-12-13T00:24:32;31.70;;;19.40;;
10166;SDS011;62970;53.130;8.244;2022-12-13T00:27:01;34.00;;;20.53;;
10166;SDS011;62970;53.130;8.244;2022-12-13T00:29:31;34.60;;;20.57;;
10166;SDS011;62970;53.130;8.244;2022-12-13T00:32:02;35.23;;;21.53;;
10166;SDS011;62970;53.130;8.244;2022-12-13T00:34:34;35.30;;;21.03;;
10166;SDS011;62970;53.130;8.244;2022-12-13T00:37:04;30.50;;;19.33;;
10166;SDS011;62970;53.130;8.244;2022-12-13T00:39:34;33.13;;;20.33;;
10166;SDS011;62970;53.130;8.244;2022-12-13T00:42:04;32.73;;;19.83;;
10166;SDS011;62970;53.130;8.244;2022-12-13T00:44:34;32.43;;;19.53;;
10166;SDS011;62970;53.130;8.244;2022-12-13T00:47:03;31.17;;;19.60;;
10166;SDS011;62970;53.130;8.244;2022-12-13T00:49:35;33.20;;;20.40;;
10166;SDS011;62970;53.130;8.244;2022-12-13T00:52:05;32.03;;;19.77;;
10166;SDS011;62970;53.130;8.244;2022-12-13T00:54:34;30.80;;;19.63;;
10166;SDS011;62970;53.130;8.244;2022-12-13T00:57:03;33.90;;;20.17;;
10166;SDS011;62970;53.130;8.244;2022-12-13T00:59:34;32.33;;;19.87;;
10166;SDS011;62970;53.130;8.244;2022-12-13T01:02:04;35.33;;;21.00;;
10166;SDS011;62970;53.130;8.244;2022-12-13T01:04:36;34.47;;;20.63;;
10166;SDS011;62970;53.130;8.244;2022-12-13T01:07:05;32.00;;;20.83;;
10166;SDS011;62970;53.130;8.244;2022-12-13T01:09:35;35.97;;;22.17;;
10166;SDS011;62970;53.130;8.244;2022-12-13T01:12:06;36.80;;;21.07;;
10166;SDS011;62970;53.130;8.244;2022-12-13T01:14:39;40.27;;;22.27;;
10166;SDS011;62970;53.130;8.244;2022-12-13T01:17:08;35.77;;;21.60;;
10166;SDS011;62970;53.130;8.244;2022-12-13T01:19:41;36.90;;;22.17;;
10166;SDS011;62970;53.130;8.244;2022-12-13T01:22:10;45.43;;;22.43;;
10166;SDS011;62970;53.130;8.244;2022-12-13T01:24:39;39.27;;;22.07;;
10166;SDS011;62970;53.130;8.244;2022-12-13T01:27:09;38.53;;;21.87;;
10166;SDS011;62970;53.130;8.244;2022-12-13T01:29:39;38.13;;;21.37;;
10166;SDS011;62970;53.130;8.244;2022-12-13T01:32:08;40.60;;;22.37;;
10166;SDS011;62970;53.130;8.244;2022-12-13T01:34:37;42.30;;;23.30;;
10166;SDS011;62970;53.130;8.244;2022-12-13T01:37:09;39.37;;;20.10;;
10166;SDS011;62970;53.130;8.244;2022-12-13T01:39:39;34.97;;;20.33;;
10166;SDS011;62970;53.130;8.244;2022-12-13T01:42:09;39.43;;;19.70;;
10166;SDS011;62970;53.130;8.244;2022-12-13T01:44:57;40.80;;;19.93;;
10166;SDS011;62970;53.130;8.244;2022-12-13T01:47:33;39.53;;;20.87;;
10166;SDS011;62970;53.130;8.244;2022-12-13T01:50:11;36.40;;;19.73;;
10166;SDS011;62970;53.130;8.244;2022-12-13T01:52:44;35.70;;;20.53;;
10166;SDS011;62970;53.130;8.244;2022-12-13T01:55:15;35.33;;;20.27;;
10166;SDS011;62970;53.130;8.244;2022-12-13T01:57:47;45.53;;;20.77;;
10166;SDS011;62970;53.130;8.244;2022-12-13T02:00:18;38.73;;;19.50;;
10166;SDS011;62970;53.130;8.244;2022-12-13T02:02:48;35.97;;;19.43;;
10166;SDS011;62970;53.130;8.244;2022-12-13T02:05:23;46.60;;;19.40;;
10166;SDS011;62970;53.130;8.244;2022-12-13T02:07:59;40.37;;;19.27;;
10166;SDS011;62970;53.130;8.244;2022-12-13T02:10:29;34.47;;;19.60;;
10166;SDS011;62970;53.130;8.244;2022-12-13T02:13:00;33.50;;;19.57;;
10166;SDS011;62970;53.130;8.244;2022-12-13T02:15:30;39.03;;;19.80;;
10166;SDS011;62970;53.130;8.244;2022-12-13T02:18:13;32.57;;;19.43;;
10166;SDS011;62970;53.130;8.244;2022-12-13T02:24:08;33.10;;;19.23;;
10166;SDS011;62970;53.130;8.244;2022-12-13T02:27:09;29.27;;;19.40;;
10166;SDS011;62970;53.130;8.244;2022-12-13T02:33:00;31.60;;;19.17;;
10166;SDS011;62970;53.130;8.244;2022-12-13T02:35:50;32.37;;;20.30;;
10166;SDS011;62970;53.130;8.244;2022-12-13T02:38:28;31.03;;;19.20;;
10166;SDS011;62970;53.130;8.244;2022-12-13T02:41:09;29.77;;;18.50;;
10166;SDS011;62970;53.130;8.244;2022-12-13T02:43:46;29.53;;;18.73;;
10166;SDS011;62970;53.130;8.244;2022-12-13T02:46:27;28.23;;;18.53;;
10166;SDS011;62970;53.130;8.244;2022-12-13T02:49:00;26.80;;;17.30;;
10166;SDS011;62970;53.130;8.244;2022-12-13T02:51:32;30.17;;;19.00;;
10166;SDS011;62970;53.130;8.244;2022-12-13T02:54:04;27.77;;;18.23;;
10166;SDS011;62970;53.130;8.244;2022-12-13T02:56:33;28.23;;;18.53;;
10166;SDS011;62970;53.130;8.244;2022-12-13T02:59:04;27.60;;;18.13;;
10166;SDS011;62970;53.130;8.244;2022-12-13T03:01:46;28.70;;;18.53;;
10166;SDS011;62970;53.130;8.244;2022-12-13T03:04:39;26.40;;;17.97;;
10166;SDS011;62970;53.130;8.244;2022-12-13T03:07:32;26.70;;;18.10;;
10166;SDS011;62970;53.130;8.244;2022-12-13T03:10:14;29.50;;;18.80;;
10166;SDS011;62970;53.130;8.244;2022-12-13T03:12:49;30.67;;;18.70;;
10166;SDS011;62970;53.130;8.244;2022-12-13T03:15:37;30.90;;;19.63;;
10166;SDS011;62970;53.130;8.244;2022-12-13T03:18:15;28.97;;;18.47;;
10166;SDS011;62970;53.130;8.244;2022-12-13T03:20:49;31.67;;;19.40;;
10166;SDS011;62970;53.130;8.244;2022-12-13T03:23:21;33.43;;;20.07;;
10166;SDS011;62970;53.130;8.244;2022-12-13T03:25:52;36.20;;;19.97;;
10166;SDS011;62970;53.130;8.244;2022-12-13T03:28:24;39.10;;;21.87;;
10166;SDS011;62970;53.130;8.244;2022-12-13T03:30:53;38.30;;;20.53;;
10166;SDS011;62970;53.130;8.244;2022-12-13T03:33:25;41.83;;;21.30;;
10166;SDS011;62970;53.130;8.244;2022-12-13T03:35:55;41.00;;;22.03;;
10166;SDS011;62970;53.130;8.244;2022-12-13T03:38:25;42.30;;;21.93;;
10166;SDS011;62970;53.130;8.244;2022-12-13T03:40:55;39.90;;;21.63;;
10166;SDS011;62970;53.130;8.244;2022-12-13T03:43:28;42.60;;;22.43;;
10166;SDS011;62970;53.130;8.244;2022-12-13T03:45:57;45.70;;;23.80;;
10166;SDS011;62970;53.130;8.244;2022-12-13T03:48:30;46.73;;;22.97;;
10166;SDS011;62970;53.130;8.244;2022-12-13T03:50:59;42.53;;;21.70;;
10166;SDS011;62970;53.130;8.244;2022-12-13T03:53:29;38.27;;;21.40;;
10166;SDS011;62970;53.130;8.244;2022-12-13T03:55:59;36.23;;;21.43;;
10166;SDS011;62970;53.130;8.244;2022-12-13T03:58:31;36.23;;;20.73;;
10166;SDS011;62970;53.130;8.244;2022-12-13T04:01:02;39.13;;;22.10;;
10166;SDS011;62970;53.130;8.244;2022-12-13T04:03:36;37.77;;;20.90;;
10166;SDS011;62970;53.130;8.244;2022-12-13T04:06:06;39.67;;;21.23;;
10166;SDS011;62970;53.130;8.244;2022-12-13T04:08:37;39.77;;;20.73;;
10166;SDS011;62970;53.130;8.244;2022-12-13T04:11:07;37.50;;;21.43;;
10166;SDS011;62970;53.130;8.244;2022-12-13T04:13:49;32.40;;;20.17;;
10166;SDS011;62970;53.130;8.244;2022-12-13T04:16:19;42.23;;;21.40;;
10166;SDS011;62970;53.130;8.244;2022-12-13T04:18:53;34.83;;;20.13;;
10166;SDS011;62970;53.130;8.244;2022-12-13T04:21:22;33.33;;;20.73;;
10166;SDS011;62970;53.130;8.244;2022-12-13T04:23:52;35.73;;;20.73;;
10166;SDS011;62970;53.130;8.244;2022-12-13T04:26:22;43.97;;;20.93;;
10166;SDS011;62970;53.130;8.244;2022-12-13T04:28:51;35.27;;;21.00;;
10166;SDS011;62970;53.130;8.244;2022-12-13T04:31:20;33.40;;;19.80;;
10166;SDS011;62970;53.130;8.244;2022-12-13T04:33:52;36.60;;;20.30;;
10166;SDS011;62970;53.130;8.244;2022-12-13T04:36:21;34.83;;;19.73;;
10166;SDS011;62970;53.130;8.244;2022-12-13T04:38:51;30.20;;;19.00;;
10166;SDS011;62970;53.130;8.244;2022-12-13T04:41:20;35.77;;;19.70;;
10166;SDS011;62970;53.130;8.244;2022-12-13T04:43:50;31.27;;;19.83;;
10166;SDS011;62970;53.130;8.244;2022-12-13T04:46:20;34.80;;;19.50;;
10166;SDS011;62970;53.130;8.244;2022-12-13T04:48:53;38.63;;;19.73;;
10166;SDS011;62970;53.130;8.244;2022-12-13T04:51:22;33.83;;;20.23;;
10166;SDS011;62970;53.130;8.244;2022-12-13T04:53:54;36.27;;;20.80;;
10166;SDS011;62970;53.130;8.244;2022-12-13T04:56:23;31.17;;;19.60;;
10166;SDS011;62970;53.130;8.244;2022-12-13T04:58:53;32.17;;;19.93;;
10166;SDS011;62970;53.130;8.244;2022-12-13T05:01:22;32.37;;;18.80;;
10166;SDS011;62970;53.130;8.244;2022-12-13T05:03:54;32.07;;;18.20;;
10166;SDS011;62970;53.130;8.244;2022-12-13T05:06:24;32.33;;;19.07;;
10166;SDS011;62970;53.130;8.244;2022-12-13T05:08:54;32.47;;;19.83;;
10166;SDS011;62970;53.130;8.244;2022-12-13T05:11:24;36.93;;;20.20;;
10166;SDS011;62970;53.130;8.244;2022-12-13T05:13:53;31.57;;;19.90;;
10166;SDS011;62970;53.130;8.244;2022-12-13T05:16:22;35.60;;;20.10;;
10166;SDS011;62970;53.130;8.244;2022-12-13T05:18:55;35.77;;;19.60;;
10166;SDS011;62970;53.130;8.244;2022-12-13T05:21:24;30.43;;;19.33;;
10166;SDS011;62970;53.130;8.244;2022-12-13T05:23:54;29.67;;;18.33;;
10166;SDS011;62970;53.130;8.244;2022-12-13T05:26:24;40.23;;;20.60;;
10166;SDS011;62970;53.130;8.244;2022-12-13T05:28:54;28.80;;;18.67;;
10166;SDS011;62970;53.130;8.244;2022-12-13T05:31:23;30.93;;;19.70;;
10166;SDS011;62970;53.130;8.244;2022-12-13T05:33:55;33.83;;;19.50;;
10166;SDS011;62970;53.130;8.244;2022-12-13T05:36:25;27.57;;;18.33;;
10166;SDS011;62970;53.130;8.244;2022-12-13T05:38:54;30.90;;;19.67;;
10166;SDS011;62970;53.130;8.244;2022-12-13T05:41:23;33.27;;;19.70;;
10166;SDS011;62970;53.130;8.244;2022-12-13T05:43:57;30.87;;;19.83;;
10166;SDS011;62970;53.130;8.244;2022-12-13T05:46:27;32.07;;;20.33;;
10166;SDS011;62970;53.130;8.244;2022-12-13T05:48:59;31.63;;;19.47;;
10166;SDS011;62970;53.130;8.244;2022-12-13T05:51:28;31.07;;;19.90;;
10166;SDS011;62970;53.130;8.244;2022-12-13T05:53:58;28.93;;;19.40;;
10166;SDS011;62970;53.130;8.244;2022-12-13T05:56:27;32.60;;;18.63;;
10166;SDS011;62970;53.130;8.244;2022-12-13T05:58:56;34.50;;;18.77;;
10166;SDS011;62970;53.130;8.244;2022-12-13T06:01:25;31.70;;;19.47;;
10166;SDS011;62970;53.130;8.244;2022-12-13T06:03:54;28.87;;;19.13;;
10166;SDS011;62970;53.130;8.244;2022-12-13T06:06:26;30.40;;;18.90;;
10166;SDS011;62970;53.130;8.244;2022-12-13T06:08:57;30.27;;;20.67;;
10166;SDS011;62970;53.130;8.244;2022-12-13T06:11:27;31.83;;;19.67;;
10166;SDS011;62970;53.130;8.244;2022-12-13T06:14:01;31.47;;;20.13;;
10166;SDS011;62970;53.130;8.244;2022-12-13T06:16:31;29.40;;;19.73;;
10166;SDS011;62970;53.130;8.244;2022-12-13T06:19:01;29.40;;;19.83;;
10166;SDS011;62970;53.130;8.244;2022-12-13T06:21:33;34.73;;;20.40;;
10166;SDS011;62970;53.130;8.244;2022-12-13T06:24:03;27.13;;;18.47;;
10166;SDS011;62970;53.130;8.244;2022-12-13T06:26:33;34.90;;;21.23;;
10166;SDS011;62970;53.130;8.244;2022-12-13T06:29:03;31.93;;;19.57;;
10166;SDS011;62970;53.130;8.244;2022-12-13T06:31:32;33.33;;;19.67;;
10166;SDS011;62970;53.130;8.244;2022-12-13T06:34:01;26.90;;;18.93;;
10166;SDS011;62970;53.130;8.244;2022-12-13T06:36:34;29.57;;;18.43;;
10166;SDS011;62970;53.130;8.244;2022-12-13T06:39:04;28.73;;;18.77;;
10166;SDS011;62970;53.130;8.244;2022-12-13T06:41:34;28.03;;;19.37;;
10166;SDS011;62970;53.130;8.244;2022-12-13T06:44:03;28.17;;;18.93;;
10166;SDS011;62970;53.130;8.244;2022-12-13T06:46:33;29.03;;;19.73;;
10166;SDS011;62970;53.130;8.244;2022-12-13T06:49:02;29.43;;;19.40;;
10166;SDS011;62970;53.130;8.244;2022-12-13T06:51:36;30.70;;;19.47;;
10166;SDS011;62970;53.130;8.244;2022-12-13T06:54:05;30.07;;;19.40;;
10166;SDS011;62970;53.130;8.244;2022-12-13T06:56:34;29.93;;;19.33;;
10166;SDS011;62970;53.130;8.244;2022-12-13T06:59:04;30.70;;;17.97;;
10166;SDS011;62970;53.130;8.244;2022-12-13T07:01:33;25.47;;;17.63;;
10166;SDS011;62970;53.130;8.244;2022-12-13T07:04:02;27.93;;;18.17;;
10166;SDS011;62970;53.130;8.244;2022-12-13T07:06:36;27.10;;;18.63;;
10166;SDS011;62970;53.130;8.244;2022-12-13T07:09:05;26.27;;;18.53;;
10166;SDS011;62970;53.130;8.244;2022-12-13T07:11:34;27.37;;;18.67;;
10166;SDS011;62970;53.130;8.244;2022-12-13T07:14:03;28.50;;;18.70;;
10166;SDS011;62970;53.130;8.244;2022-12-13T07:16:33;28.73;;;19.97;;
10166;SDS011;62970;53.130;8.244;2022-12-13T07:19:02;28.50;;;19.47;;
10166;SDS011;62970;53.130;8.244;2022-12-13T07:21:32;32.83;;;19.10;;
10166;SDS011;62970;53.130;8.244;2022-12-13T07:24:04;30.20;;;20.07;;
10166;SDS011;62970;53.130;8.244;2022-12-13T07:26:35;31.57;;;19.53;;
10166;SDS011;62970;53.130;8.244;2022-12-13T07:29:04;28.53;;;18.87;;
10166;SDS011;62970;53.130;8.244;2022-12-13T07:31:33;29.63;;;18.47;;
10166;SDS011;62970;53.130;8.244;2022-12-13T07:34:05;26.00;;;18.43;;
10166;SDS011;62970;53.130;8.244;2022-12-13T07:36:37;27.67;;;18.27;;
10166;SDS011;62970;53.130;8.244;2022-12-13T07:39:06;28.87;;;18.50;;
10166;SDS011;62970;53.130;8.244;2022-12-13T07:41:35;30.83;;;19.07;;
10166;SDS011;62970;53.130;8.244;2022-12-13T07:44:04;27.20;;;18.57;;
10166;SDS011;62970;53.130;8.244;2022-12-13T07:46:36;26.97;;;19.03;;
10166;SDS011;62970;53.130;8.244;2022-12-13T07:49:05;26.57;;;18.37;;
10166;SDS011;62970;53.130;8.244;2022-12-13T07:51:37;25.80;;;18.10;;
10166;SDS011;62970;53.130;8.244;2022-12-13T07:54:07;26.27;;;18.40;;
10166;SDS011;62970;53.130;8.244;2022-12-13T07:56:36;25.57;;;18.90;;
10166;SDS011;62970;53.130;8.244;2022-12-13T07:59:05;27.67;;;19.37;;
10166;SDS011;62970;53.130;8.244;2022-12-13T08:01:36;28.00;;;18.33;;
10166;SDS011;62970;53.130;8.244;2022-12-13T08:04:05;28.53;;;18.63;;
10166;SDS011;62970;53.130;8.244;2022-12-13T08:06:35;28.93;;;19.17;;
10166;SDS011;62970;53.130;8.244;2022-12-13T08:09:06;27.83;;;18.10;;
10166;SDS011;62970;53.130;8.244;2022-12-13T08:11:36;25.70;;;18.23;;
10166;SDS011;62970;53.130;8.244;2022-12-13T08:14:06;28.63;;;19.13;;
10166;SDS011;62970;53.130;8.244;2022-12-13T08:16:36;28.73;;;18.73;;
10166;SDS011;62970;53.130;8.244;2022-12-13T08:19:05;28.43;;;18.47;;
10166;SDS011;62970;53.130;8.244;2022-12-13T08:21:40;26.77;;;18.60;;
10166;SDS011;62970;53.130;8.244;2022-12-13T08:24:09;26.60;;;17.83;;
10166;SDS011;62970;53.130;8.244;2022-12-13T08:26:38;25.03;;;17.90;;
10166;SDS011;62970;53.130;8.244;2022-12-13T08:29:08;28.73;;;19.03;;
10166;SDS011;62970;53.130;8.244;2022-12-13T08:31:39;28.93;;;19.37;;
10166;SDS011;62970;53.130;8.244;2022-12-13T08:34:08;28.47;;;18.80;;
10166;SDS011;62970;53.130;8.244;2022-12-13T08:36:40;31.63;;;19.00;;
10166;SDS011;62970;53.130;8.244;2022-12-13T08:39:09;29.80;;;19.77;;
10166;SDS011;62970;53.130;8.244;2022-12-13T08:41:40;30.97;;;18.87;;
10166;SDS011;62970;53.130;8.244;2022-12-13T08:44:09;27.80;;;18.93;;
10166;SDS011;62970;53.130;8.244;2022-12-13T08:46:38;30.80;;;19.67;;
10166;SDS011;62970;53.130;8.244;2022-12-13T08:49:09;28.57;;;19.67;;
10166;SDS011;62970;53.130;8.244;2022-12-13T08:51:41;29.40;;;19.90;;
10166;SDS011;62970;53.130;8.244;2022-12-13T08:54:10;30.53;;;19.70;;
10166;SDS011;62970;53.130;8.244;2022-12-13T08:56:40;28.80;;;18.50;;
10166;SDS011;62970;53.130;8.244;2022-12-13T08:59:09;32.93;;;19.97;;
10166;SDS011;62970;53.130;8.244;2022-12-13T09:01:40;28.87;;;18.77;;
10166;SDS011;62970;53.130;8.244;2022-12-13T09:04:10;27.93;;;18.83;;
10166;SDS011;62970;53.130;8.244;2022-12-13T09:06:43;25.60;;;17.80;;
10166;SDS011;62970;53.130;8.244;2022-12-13T09:09:12;27.67;;;16.93;;
10166;SDS011;62970;53.130;8.244;2022-12-13T09:11:41;28.30;;;19.60;;
10166;SDS011;62970;53.130;8.244;2022-12-13T09:14:10;28.63;;;18.87;;
10166;SDS011;62970;53.130;8.244;2022-12-13T09:16:40;30.10;;;19.70;;
10166;SDS011;62970;53.130;8.244;2022-12-13T09:19:12;27.43;;;18.93;;
10166;SDS011;62970;53.130;8.244;2022-12-13T09:21:43;31.47;;;20.57;;
10166;SDS011;62970;53.130;8.244;2022-12-13T09:24:12;29.33;;;19.67;;
10166;SDS011;62970;53.130;8.244;2022-12-13T09:26:42;28.97;;;19.87;;
10166;SDS011;62970;53.130;8.244;2022-12-13T09:29:11;28.43;;;18.87;;
10166;SDS011;62970;53.130;8.244;2022-12-13T09:31:41;28.30;;;18.47;;
10166;SDS011;62970;53.130;8.244;2022-12-13T09:34:11;30.03;;;20.00;;
10166;SDS011;62970;53.130;8.244;2022-12-13T09:36:40;28.23;;;19.33;;
10166;SDS011;62970;53.130;8.244;2022-12-13T09:39:12;27.47;;;18.53;;
10166;SDS011;62970;53.130;8.244;2022-12-13T09:41:41;27.07;;;18.17;;
10166;SDS011;62970;53.130;8.244;2022-12-13T09:44:15;27.20;;;19.27;;
10166;SDS011;62970;53.130;8.244;2022-12-13T09:46:52;26.37;;;18.57;;
10166;SDS011;62970;53.130;8.244;2022-12-13T09:49:26;27.93;;;19.57;;
10166;SDS011;62970;53.130;8.244;2022-12-13T09:52:02;28.87;;;19.67;;
10166;SDS011;62970;53.130;8.244;2022-12-13T09:54:35;26.37;;;18.60;;
10166;SDS011;62970;53.130;8.244;2022-12-13T09:57:08;28.40;;;19.40;;
10166;SDS011;62970;53.130;8.244;2022-12-13T09:59:45;31.67;;;19.20;;
10166;SDS011;62970;53.130;8.244;2022-12-13T10:02:22;30.93;;;20.47;;
10166;SDS011;62970;53.130;8.244;2022-12-13T10:04:56;28.10;;;19.00;;
10166;SDS011;62970;53.130;8.244;2022-12-13T10:07:37;31.53;;;20.23;;
10166;SDS011;62970;53.130;8.244;2022-12-13T10:10:08;29.63;;;19.17;;
10166;SDS011;62970;53.130;8.244;2022-12-13T10:12:42;30.60;;;20.57;;
10166;SDS011;62970;53.130;8.244;2022-12-13T10:15:15;30.60;;;20.27;;
10166;SDS011;62970;53.130;8.244;2022-12-13T10:17:48;34.53;;;20.07;;
10166;SDS011;62970;53.130;8.244;2022-12-13T10:20:18;32.50;;;20.13;;
10166;SDS011;62970;53.130;8.244;2022-12-13T10:22:52;28.83;;;20.07;;
10166;SDS011;62970;53.130;8.244;2022-12-13T10:28:15;30.13;;;20.17;;
10166;SDS011;62970;53.130;8.244;2022-12-13T10:30:46;30.60;;;19.93;;
10166;SDS011;62970;53.130;8.244;2022-12-13T10:33:19;30.77;;;19.73;;
10166;SDS011;62970;53.130;8.244;2022-12-13T10:36:05;32.30;;;20.77;;
10166;SDS011;62970;53.130;8.244;2022-12-13T10:38:44;28.40;;;20.03;;
10166;SDS011;62970;53.130;8.244;2022-12-13T10:41:25;29.03;;;20.43;;
10166;SDS011;62970;53.130;8.244;2022-12-13T10:44:17;29.97;;;20.17;;
10166;SDS011;62970;53.130;8.244;2022-12-13T10:46:50;30.37;;;20.33;;
10166;SDS011;62970;53.130;8.244;2022-12-13T10:49:36;31.90;;;21.13;;
10166;SDS011;62970;53.130;8.244;2022-12-13T10:52:19;31.00;;;21.03;;
10166;SDS011;62970;53.130;8.244;2022-12-13T10:54:58;30.67;;;20.50;;
10166;SDS011;62970;53.130;8.244;2022-12-13T10:57:31;37.77;;;23.47;;
10166;SDS011;62970;53.130;8.244;2022-12-13T11:00:01;52.43;;;27.07;;
10166;SDS011;62970;53.130;8.244;2022-12-13T11:02:52;56.77;;;28.73;;
10166;SDS011;62970;53.130;8.244;2022-12-13T11:05:24;61.43;;;31.47;;
10166;SDS011;62970;53.130;8.244;2022-12-13T11:07:56;59.37;;;31.17;;
10166;SDS011;62970;53.130;8.244;2022-12-13T11:10:45;54.87;;;29.50;;
10166;SDS011;62970;53.130;8.244;2022-12-13T11:13:24;52.70;;;28.57;;
10166;SDS011;62970;53.130;8.244;2022-12-13T11:16:04;43.07;;;24.90;;
10166;SDS011;62970;53.130;8.244;2022-12-13T11:18:50;40.83;;;23.67;;
10166;SDS011;62970;53.130;8.244;2022-12-13T11:21:23;38.17;;;23.53;;
10166;SDS011;62970;53.130;8.244;2022-12-13T11:23:55;38.60;;;23.77;;
10166;SDS011;62970;53.130;8.244;2022-12-13T11:26:29;43.17;;;25.77;;
10166;SDS011;62970;53.130;8.244;2022-12-13T11:29:07;39.77;;;25.03;;
10166;SDS011;62970;53.130;8.244;2022-12-13T11:32:07;39.03;;;23.97;;
10166;SDS011;62970;53.130;8.244;2022-12-13T11:34:47;34.03;;;23.47;;
10166;SDS011;62970;53.130;8.244;2022-12-13T11:37:27;34.93;;;22.67;;
10166;SDS011;62970;53.130;8.244;2022-12-13T11:40:02;34.13;;;22.83;;
10166;SDS011;62970;53.130;8.244;2022-12-13T11:42:42;35.27;;;22.73;;
10166;SDS011;62970;53.130;8.244;2022-12-13T11:45:19;31.13;;;22.47;;
10166;SDS011;62970;53.130;8.244;2022-12-13T11:47:54;33.93;;;22.97;;
10166;SDS011;62970;53.130;8.244;2022-12-13T11:50:34;36.03;;;24.23;;
10166;SDS011;62970;53.130;8.244;2022-12-13T11:53:19;34.90;;;23.20;;
10166;SDS011;62970;53.130;8.244;2022-12-13T11:55:57;39.67;;;24.40;;
10166;SDS011;62970;53.130;8.244;2022-12-13T11:58:36;37.33;;;24.47;;
10166;SDS011;62970;53.130;8.244;2022-12-13T12:01:16;34.73;;;23.23;;
10166;SDS011;62970;53.130;8.244;2022-12-13T12:03:53;36.10;;;22.77;;
10166;SDS011;62970;53.130;8.244;2022-12-13T12:06:31;39.30;;;25.07;;
10166;SDS011;62970;53.130;8.244;2022-12-13T12:09:09;34.73;;;23.13;;
10166;SDS011;62970;53.130;8.244;2022-12-13T12:11:43;35.93;;;23.53;;
10166;SDS011;62970;53.130;8.244;2022-12-13T12:14:27;36.37;;;23.63;;
10166;SDS011;62970;53.130;8.244;2022-12-13T12:17:05;37.23;;;24.57;;
10166;SDS011;62970;53.130;8.244;2022-12-13T12:19:40;39.90;;;24.67;;
10166;SDS011;62970;53.130;8.244;2022-12-13T12:22:16;37.30;;;24.60;;
10166;SDS011;62970;53.130;8.244;2022-12-13T12:25:05;39.63;;;25.07;;
10166;SDS011;62970;53.130;8.244;2022-12-13T12:27:50;37.63;;;24.07;;
10166;SDS011;62970;53.130;8.244;2022-12-13T12:30:37;38.83;;;25.43;;
10166;SDS011;62970;53.130;8.244;2022-12-13T12:33:20;40.37;;;24.93;;
10166;SDS011;62970;53.130;8.244;2022-12-13T12:36:07;36.53;;;25.00;;
10166;SDS011;62970;53.130;8.244;2022-12-13T12:39:04;39.50;;;24.57;;
10166;SDS011;62970;53.130;8.244;2022-12-13T12:42:04;38.37;;;25.20;;
10166;SDS011;62970;53.130;8.244;2022-12-13T12:45:15;38.50;;;23.87;;
10166;SDS011;62970;53.130;8.244;2022-12-13T12:48:09;39.97;;;24.20;;
10166;SDS011;62970;53.130;8.244;2022-12-13T12:50:55;38.83;;;23.83;;
10166;SDS011;62970;53.130;8.244;2022-12-13T12:53:36;38.53;;;24.90;;
10166;SDS011;62970;53.130;8.244;2022-12-13T12:56:17;38.60;;;24.97;;
10166;SDS011;62970;53.130;8.244;2022-12-13T12:59:07;41.57;;;25.10;;
10166;SDS011;62970;53.130;8.244;2022-12-13T13:01:49;35.90;;;23.60;;
10166;SDS011;62970;53.130;8.244;2022-12-13T13:04:27;39.10;;;24.23;;
10166;SDS011;62970;53.130;8.244;2022-12-13T13:07:03;38.57;;;23.90;;
10166;SDS011;62970;53.130;8.244;2022-12-13T13:09:40;39.30;;;25.70;;
10166;SDS011;62970;53.130;8.244;2022-12-13T13:12:10;41.17;;;26.27;;
10166;SDS011;62970;53.130;8.244;2022-12-13T13:14:40;43.07;;;26.93;;
10166;SDS011;62970;53.130;8.244;2022-12-13T13:20:21;40.03;;;25.93;;
10166;SDS011;62970;53.130;8.244;2022-12-13T13:22:52;43.17;;;26.43;;
10166;SDS011;62970;53.130;8.244;2022-12-13T13:25:29;43.97;;;26.60;;
10166;SDS011;62970;53.130;8.244;2022-12-13T13:28:01;45.00;;;26.03;;
10166;SDS011;62970;53.130;8.244;2022-12-13T13:30:33;37.87;;;24.03;;
10166;SDS011;62970;53.130;8.244;2022-12-13T13:33:40;38.53;;;24.73;;
10166;SDS011;62970;53.130;8.244;2022-12-13T13:39:17;39.53;;;23.13;;
10166;SDS011;62970;53.130;8.244;2022-12-13T13:42:15;37.10;;;23.77;;
10166;SDS011;62970;53.130;8.244;2022-12-13T13:47:53;43.03;;;25.70;;
10166;SDS011;62970;53.130;8.244;2022-12-13T13:54:10;39.63;;;24.73;;
10166;SDS011;62970;53.130;8.244;2022-12-13T13:57:18;40.57;;;25.07;;
10166;SDS011;62970;53.130;8.244;2022-12-13T14:00:20;40.50;;;25.23;;
10166;SDS011;62970;53.130;8.244;2022-12-13T14:03:22;39.27;;;24.43;;
10166;SDS011;62970;53.130;8.244;2022-12-13T14:06:45;42.33;;;25.57;;
10166;SDS011;62970;53.130;8.244;2022-12-13T14:10:18;41.33;;;24.80;;
10166;SDS011;62970;53.130;8.244;2022-12-13T14:16:29;39.53;;;24.00;;
10166;SDS011;62970;53.130;8.244;2022-12-13T14:22:55;40.60;;;24.83;;
10166;SDS011;62970;53.130;8.244;2022-12-13T14:25:40;37.60;;;24.27;;
10166;SDS011;62970;53.130;8.244;2022-12-13T14:28:26;41.40;;;24.17;;
10166;SDS011;62970;53.130;8.244;2022-12-13T14:31:12;37.90;;;24.63;;
10166;SDS011;62970;53.130;8.244;2022-12-13T14:33:45;41.10;;;24.10;;
10166;SDS011;62970;53.130;8.244;2022-12-13T14:36:16;39.80;;;25.37;;
10166;SDS011;62970;53.130;8.244;2022-12-13T14:38:59;42.23;;;25.50;;
10166;SDS011;62970;53.130;8.244;2022-12-13T14:41:32;42.13;;;25.63;;
10166;SDS011;62970;53.130;8.244;2022-12-13T14:44:12;44.43;;;26.03;;
10166;SDS011;62970;53.130;8.244;2022-12-13T14:46:47;41.60;;;24.47;;
10166;SDS011;62970;53.130;8.244;2022-12-13T14:49:22;45.30;;;25.80;;
10166;SDS011;62970;53.130;8.244;2022-12-13T14:51:55;41.40;;;26.10;;
10166;SDS011;62970;53.130;8.244;2022-12-13T14:54:28;43.83;;;26.80;;
10166;SDS011;62970;53.130;8.244;2022-12-13T14:57:14;46.97;;;27.47;;
10166;SDS011;62970;53.130;8.244;2022-12-13T14:59:45;49.10;;;29.00;;
10166;SDS011;62970;53.130;8.244;2022-12-13T15:02:17;50.13;;;28.63;;
10166;SDS011;62970;53.130;8.244;2022-12-13T15:04:51;46.60;;;28.00;;
10166;SDS011;62970;53.130;8.244;2022-12-13T15:07:23;50.57;;;28.30;;
10166;SDS011;62970;53.130;8.244;2022-12-13T15:09:56;49.80;;;28.97;;
10166;SDS011;62970;53.130;8.244;2022-12-13T15:12:31;51.93;;;29.20;;
10166;SDS011;62970;53.130;8.244;2022-12-13T15:15:02;48.53;;;28.40;;
10166;SDS011;62970;53.130;8.244;2022-12-13T15:18:03;53.43;;;28.67;;
10166;SDS011;62970;53.130;8.244;2022-12-13T15:20:45;51.67;;;29.57;;
10166;SDS011;62970;53.130;8.244;2022-12-13T15:23:18;52.97;;;29.87;;
10166;SDS011;62970;53.130;8.244;2022-12-13T15:25:54;53.50;;;29.63;;
10166;SDS011;62970;53.130;8.244;2022-12-13T15:28:31;52.47;;;29.63;;
10166;SDS011;62970;53.130;8.244;2022-12-13T15:31:04;53.60;;;30.33;;
10166;SDS011;62970;53.130;8.244;2022-12-13T15:33:34;55.67;;;30.60;;